sensor_id;sensor_type;location;lat;lon;timestamp;temperature;humidity
37984;DHT22;64625;50.882;4.376;2023-05-10T00:00:58;13.50;99.90
37984;DHT22;64625;50.882;4.376;2023-05-10T00:03:24;13.50;99.90
37984;DHT22;64625;50.882;4.376;2023-05-10T00:05:50;13.50;99.90
37984;DHT22;64625;50.882;4.376;2023-05-10T00:08:16;13.50;99.90
37984;DHT22;64625;50.882;4.376;2023-05-10T00:10:42;13.50;99.90
37984;DHT22;64625;50.882;4.376;2023-05-10T00:13:07;13.50;99.90
37984;DHT22;64625;50.882;4.376;2023-05-10T00:15:33;13.50;99.90
37984;DHT22;64625;50.882;4.376;2023-05-10T00:18:00;13.40;99.90
37984;DHT22;64625;50.882;4.376;2023-05-10T00:20:26;13.40;99.90
37984;DHT22;64625;50.882;4.376;2023-05-10T00:22:52;13.40;99.90
37984;DHT22;64625;50.882;4.376;2023-05-10T00:25:17;13.40;99.90
37984;DHT22;64625;50.882;4.376;2023-05-10T00:27:43;13.40;99.90
37984;DHT22;64625;50.882;4.376;2023-05-10T00:30:09;13.50;99.90
37984;DHT22;64625;50.882;4.376;2023-05-10T00:32:35;13.40;99.90
37984;DHT22;64625;50.882;4.376;2023-05-10T00:35:01;13.40;99.90
37984;DHT22;64625;50.882;4.376;2023-05-10T00:37:27;13.50;99.90
37984;DHT22;64625;50.882;4.376;2023-05-10T00:39:53;13.50;99.90
37984;DHT22;64625;50.882;4.376;2023-05-10T00:42:18;13.50;99.90
37984;DHT22;64625;50.882;4.376;2023-05-10T00:44:44;13.50;99.90
37984;DHT22;64625;50.882;4.376;2023-05-10T00:47:10;13.50;99.90
37984;DHT22;64625;50.882;4.376;2023-05-10T00:49:37;13.50;99.90
37984;DHT22;64625;50.882;4.376;2023-05-10T00:52:03;13.50;99.90
37984;DHT22;64625;50.882;4.376;2023-05-10T00:54:30;13.50;99.90
37984;DHT22;64625;50.882;4.376;2023-05-10T00:56:55;13.50;99.90
37984;DHT22;64625;50.882;4.376;2023-05-10T00:59:22;13.50;99.90
37984;DHT22;64625;50.882;4.376;2023-05-10T01:01:48;13.50;99.90
37984;DHT22;64625;50.882;4.376;2023-05-10T01:04:14;13.50;99.90
37984;DHT22;64625;50.882;4.376;2023-05-10T01:06:41;13.50;99.90
37984;DHT22;64625;50.882;4.376;2023-05-10T01:09:07;13.50;99.90
37984;DHT22;64625;50.882;4.376;2023-05-10T01:11:35;13.50;99.90
37984;DHT22;64625;50.882;4.376;2023-05-10T01:14:02;13.50;99.90
37984;DHT22;64625;50.882;4.376;2023-05-10T01:16:32;13.50;99.90
37984;DHT22;64625;50.882;4.376;2023-05-10T01:19:00;13.50;99.90
37984;DHT22;64625;50.882;4.376;2023-05-10T01:21:43;13.50;99.90
37984;DHT22;64625;50.882;4.376;2023-05-10T01:27:25;13.50;99.90
37984;DHT22;64625;50.882;4.376;2023-05-10T01:35:43;13.50;99.90
37984;DHT22;64625;50.882;4.376;2023-05-10T01:38:32;13.50;99.90
37984;DHT22;64625;50.882;4.376;2023-05-10T01:41:19;13.50;99.90
37984;DHT22;64625;50.882;4.376;2023-05-10T01:44:04;13.50;99.90
37984;DHT22;64625;50.882;4.376;2023-05-10T01:46:37;13.50;99.90
37984;DHT22;64625;50.882;4.376;2023-05-10T01:49:08;13.50;99.90
37984;DHT22;64625;50.882;4.376;2023-05-10T01:51:44;13.50;99.90
37984;DHT22;64625;50.882;4.376;2023-05-10T01:54:13;13.40;99.90
37984;DHT22;64625;50.882;4.376;2023-05-10T01:56:40;13.50;99.90
37984;DHT22;64625;50.882;4.376;2023-05-10T01:59:12;13.50;99.90
37984;DHT22;64625;50.882;4.376;2023-05-10T02:01:41;13.50;99.90
37984;DHT22;64625;50.882;4.376;2023-05-10T02:04:09;13.50;99.90
37984;DHT22;64625;50.882;4.376;2023-05-10T02:06:38;13.50;99.90
37984;DHT22;64625;50.882;4.376;2023-05-10T02:09:05;13.50;99.90
37984;DHT22;64625;50.882;4.376;2023-05-10T02:11:32;13.50;99.90
37984;DHT22;64625;50.882;4.376;2023-05-10T02:13:58;13.40;99.90
37984;DHT22;64625;50.882;4.376;2023-05-10T02:16:27;13.40;99.90
37984;DHT22;64625;50.882;4.376;2023-05-10T02:18:58;13.40;99.90
37984;DHT22;64625;50.882;4.376;2023-05-10T02:21:26;13.50;99.90
37984;DHT22;64625;50.882;4.376;2023-05-10T02:23:55;13.50;99.90
37984;DHT22;64625;50.882;4.376;2023-05-10T02:26:24;13.50;99.90
37984;DHT22;64625;50.882;4.376;2023-05-10T02:28:51;13.50;99.90
37984;DHT22;64625;50.882;4.376;2023-05-10T02:31:19;13.50;99.90
37984;DHT22;64625;50.882;4.376;2023-05-10T02:33:46;13.50;99.90
37984;DHT22;64625;50.882;4.376;2023-05-10T02:36:13;13.50;99.90
37984;DHT22;64625;50.882;4.376;2023-05-10T02:38:41;13.50;99.90
37984;DHT22;64625;50.882;4.376;2023-05-10T02:41:08;13.50;99.90
37984;DHT22;64625;50.882;4.376;2023-05-10T02:43:35;13.50;99.90
37984;DHT22;64625;50.882;4.376;2023-05-10T02:46:02;13.50;99.90
37984;DHT22;64625;50.882;4.376;2023-05-10T02:48:29;13.50;99.90
37984;DHT22;64625;50.882;4.376;2023-05-10T02:50:57;13.50;99.90
37984;DHT22;64625;50.882;4.376;2023-05-10T02:53:47;13.50;99.90
37984;DHT22;64625;50.882;4.376;2023-05-10T02:56:25;13.50;99.90
37984;DHT22;64625;50.882;4.376;2023-05-10T02:58:52;13.50;99.90
37984;DHT22;64625;50.882;4.376;2023-05-10T03:01:19;13.50;99.90
37984;DHT22;64625;50.882;4.376;2023-05-10T03:03:45;13.50;99.90
37984;DHT22;64625;50.882;4.376;2023-05-10T03:06:10;13.50;99.90
37984;DHT22;64625;50.882;4.376;2023-05-10T03:08:36;13.50;99.90
37984;DHT22;64625;50.882;4.376;2023-05-10T03:14:03;13.50;99.90
37984;DHT22;64625;50.882;4.376;2023-05-10T03:16:48;13.50;99.90
37984;DHT22;64625;50.882;4.376;2023-05-10T03:19:24;13.50;99.90
37984;DHT22;64625;50.882;4.376;2023-05-10T03:21:53;13.60;99.90
37984;DHT22;64625;50.882;4.376;2023-05-10T03:24:22;13.60;99.90
37984;DHT22;64625;50.882;4.376;2023-05-10T03:26:49;13.60;99.90
37984;DHT22;64625;50.882;4.376;2023-05-10T03:29:16;13.60;99.90
37984;DHT22;64625;50.882;4.376;2023-05-10T03:31:42;13.60;99.90
37984;DHT22;64625;50.882;4.376;2023-05-10T03:34:08;13.60;99.90
37984;DHT22;64625;50.882;4.376;2023-05-10T03:36:34;13.50;99.90
37984;DHT22;64625;50.882;4.376;2023-05-10T03:39:00;13.50;99.90
37984;DHT22;64625;50.882;4.376;2023-05-10T03:41:26;13.50;99.90
37984;DHT22;64625;50.882;4.376;2023-05-10T03:43:52;13.50;99.90
37984;DHT22;64625;50.882;4.376;2023-05-10T03:46:18;13.50;99.90
37984;DHT22;64625;50.882;4.376;2023-05-10T03:48:44;13.50;99.90
37984;DHT22;64625;50.882;4.376;2023-05-10T03:51:09;13.50;99.90
37984;DHT22;64625;50.882;4.376;2023-05-10T03:53:35;13.50;99.90
37984;DHT22;64625;50.882;4.376;2023-05-10T03:56:01;13.50;99.90
37984;DHT22;64625;50.882;4.376;2023-05-10T03:58:27;13.50;99.90
37984;DHT22;64625;50.882;4.376;2023-05-10T04:00:53;13.50;99.90
37984;DHT22;64625;50.882;4.376;2023-05-10T04:03:18;13.50;99.90
37984;DHT22;64625;50.882;4.376;2023-05-10T04:05:45;13.50;99.90
37984;DHT22;64625;50.882;4.376;2023-05-10T04:08:11;13.50;99.90
37984;DHT22;64625;50.882;4.376;2023-05-10T04:10:37;13.50;99.90
37984;DHT22;64625;50.882;4.376;2023-05-10T04:13:03;13.50;99.90
37984;DHT22;64625;50.882;4.376;2023-05-10T04:15:28;13.50;99.90
37984;DHT22;64625;50.882;4.376;2023-05-10T04:17:54;13.50;99.90
37984;DHT22;64625;50.882;4.376;2023-05-10T04:20:20;13.50;99.90
37984;DHT22;64625;50.882;4.376;2023-05-10T04:22:46;13.50;99.90
37984;DHT22;64625;50.882;4.376;2023-05-10T04:25:12;13.50;99.90
37984;DHT22;64625;50.882;4.376;2023-05-10T04:27:38;13.60;99.90
37984;DHT22;64625;50.882;4.376;2023-05-10T04:30:04;13.50;99.90
37984;DHT22;64625;50.882;4.376;2023-05-10T04:32:30;13.50;99.90
37984;DHT22;64625;50.882;4.376;2023-05-10T04:34:56;13.50;99.90
37984;DHT22;64625;50.882;4.376;2023-05-10T04:37:22;13.50;99.90
37984;DHT22;64625;50.882;4.376;2023-05-10T04:39:48;13.50;99.90
37984;DHT22;64625;50.882;4.376;2023-05-10T04:42:14;13.50;99.90
37984;DHT22;64625;50.882;4.376;2023-05-10T04:44:40;13.60;99.90
37984;DHT22;64625;50.882;4.376;2023-05-10T04:47:06;13.50;99.90
37984;DHT22;64625;50.882;4.376;2023-05-10T04:49:32;13.50;99.90
37984;DHT22;64625;50.882;4.376;2023-05-10T04:51:57;13.60;99.90
37984;DHT22;64625;50.882;4.376;2023-05-10T04:54:23;13.50;99.90
37984;DHT22;64625;50.882;4.376;2023-05-10T04:56:52;13.60;99.90
37984;DHT22;64625;50.882;4.376;2023-05-10T04:59:18;13.50;99.90
37984;DHT22;64625;50.882;4.376;2023-05-10T05:01:44;13.50;99.90
37984;DHT22;64625;50.882;4.376;2023-05-10T05:04:10;13.50;99.90
37984;DHT22;64625;50.882;4.376;2023-05-10T05:06:36;13.50;99.90
37984;DHT22;64625;50.882;4.376;2023-05-10T05:09:02;13.60;99.90
37984;DHT22;64625;50.882;4.376;2023-05-10T05:11:27;13.60;99.90
37984;DHT22;64625;50.882;4.376;2023-05-10T05:13:53;13.60;99.90
37984;DHT22;64625;50.882;4.376;2023-05-10T05:16:19;13.60;99.90
37984;DHT22;64625;50.882;4.376;2023-05-10T05:18:45;13.60;99.90
37984;DHT22;64625;50.882;4.376;2023-05-10T05:21:17;13.60;99.90
37984;DHT22;64625;50.882;4.376;2023-05-10T05:23:44;13.60;99.90
37984;DHT22;64625;50.882;4.376;2023-05-10T05:26:10;13.60;99.90
37984;DHT22;64625;50.882;4.376;2023-05-10T05:28:36;13.70;99.90
37984;DHT22;64625;50.882;4.376;2023-05-10T05:31:07;13.70;99.90
37984;DHT22;64625;50.882;4.376;2023-05-10T05:33:33;13.70;99.90
37984;DHT22;64625;50.882;4.376;2023-05-10T05:36:03;13.70;99.90
37984;DHT22;64625;50.882;4.376;2023-05-10T05:38:29;13.70;99.90
37984;DHT22;64625;50.882;4.376;2023-05-10T05:40:55;13.70;99.90
37984;DHT22;64625;50.882;4.376;2023-05-10T05:43:20;13.80;99.90
37984;DHT22;64625;50.882;4.376;2023-05-10T05:45:46;13.80;99.90
37984;DHT22;64625;50.882;4.376;2023-05-10T05:48:12;13.80;99.90
37984;DHT22;64625;50.882;4.376;2023-05-10T05:50:38;13.80;99.90
37984;DHT22;64625;50.882;4.376;2023-05-10T05:53:04;13.90;99.90
37984;DHT22;64625;50.882;4.376;2023-05-10T05:55:29;13.90;99.90
37984;DHT22;64625;50.882;4.376;2023-05-10T05:57:57;13.90;99.90
37984;DHT22;64625;50.882;4.376;2023-05-10T06:00:23;14.00;99.90
37984;DHT22;64625;50.882;4.376;2023-05-10T06:02:49;14.00;99.90
37984;DHT22;64625;50.882;4.376;2023-05-10T06:05:15;14.10;99.90
37984;DHT22;64625;50.882;4.376;2023-05-10T06:07:41;14.10;99.90
37984;DHT22;64625;50.882;4.376;2023-05-10T06:10:10;14.20;99.90
37984;DHT22;64625;50.882;4.376;2023-05-10T06:12:36;14.20;99.90
37984;DHT22;64625;50.882;4.376;2023-05-10T06:15:03;14.30;99.90
37984;DHT22;64625;50.882;4.376;2023-05-10T06:17:29;14.30;99.90
37984;DHT22;64625;50.882;4.376;2023-05-10T06:19:55;14.30;99.90
37984;DHT22;64625;50.882;4.376;2023-05-10T06:22:23;14.40;99.90
37984;DHT22;64625;50.882;4.376;2023-05-10T06:24:49;14.40;99.90
37984;DHT22;64625;50.882;4.376;2023-05-10T06:27:15;14.50;99.90
37984;DHT22;64625;50.882;4.376;2023-05-10T06:29:41;14.50;99.90
37984;DHT22;64625;50.882;4.376;2023-05-10T06:32:07;14.50;99.90
37984;DHT22;64625;50.882;4.376;2023-05-10T06:34:32;14.50;99.90
37984;DHT22;64625;50.882;4.376;2023-05-10T06:36:58;14.50;99.90
37984;DHT22;64625;50.882;4.376;2023-05-10T06:39:24;14.60;99.90
37984;DHT22;64625;50.882;4.376;2023-05-10T06:41:50;14.60;99.90
37984;DHT22;64625;50.882;4.376;2023-05-10T06:44:16;14.60;99.90
37984;DHT22;64625;50.882;4.376;2023-05-10T06:46:42;14.60;99.90
37984;DHT22;64625;50.882;4.376;2023-05-10T06:49:08;14.60;99.90
37984;DHT22;64625;50.882;4.376;2023-05-10T06:51:34;14.60;99.90
37984;DHT22;64625;50.882;4.376;2023-05-10T06:53:59;14.60;99.90
37984;DHT22;64625;50.882;4.376;2023-05-10T06:56:25;14.60;99.90
37984;DHT22;64625;50.882;4.376;2023-05-10T06:58:51;14.60;99.90
37984;DHT22;64625;50.882;4.376;2023-05-10T07:01:17;14.60;99.90
37984;DHT22;64625;50.882;4.376;2023-05-10T07:03:43;14.50;99.90
37984;DHT22;64625;50.882;4.376;2023-05-10T07:06:09;14.50;99.90
37984;DHT22;64625;50.882;4.376;2023-05-10T07:08:35;14.40;99.90
37984;DHT22;64625;50.882;4.376;2023-05-10T07:11:05;14.40;99.90
37984;DHT22;64625;50.882;4.376;2023-05-10T07:13:33;14.40;99.90
37984;DHT22;64625;50.882;4.376;2023-05-10T07:16:00;14.40;99.90
37984;DHT22;64625;50.882;4.376;2023-05-10T07:18:26;14.40;99.90
37984;DHT22;64625;50.882;4.376;2023-05-10T07:20:52;14.40;99.90
37984;DHT22;64625;50.882;4.376;2023-05-10T07:23:18;14.30;99.90
37984;DHT22;64625;50.882;4.376;2023-05-10T07:25:48;14.20;99.90
37984;DHT22;64625;50.882;4.376;2023-05-10T07:28:15;14.20;99.90
37984;DHT22;64625;50.882;4.376;2023-05-10T07:30:42;14.20;99.90
37984;DHT22;64625;50.882;4.376;2023-05-10T07:33:09;14.20;99.90
37984;DHT22;64625;50.882;4.376;2023-05-10T07:35:35;14.20;99.90
37984;DHT22;64625;50.882;4.376;2023-05-10T07:38:02;14.10;99.90
37984;DHT22;64625;50.882;4.376;2023-05-10T07:40:28;14.10;99.90
37984;DHT22;64625;50.882;4.376;2023-05-10T07:42:54;14.10;99.90
37984;DHT22;64625;50.882;4.376;2023-05-10T07:45:20;14.10;99.90
37984;DHT22;64625;50.882;4.376;2023-05-10T07:47:46;14.10;99.90
37984;DHT22;64625;50.882;4.376;2023-05-10T07:50:12;14.10;99.90
37984;DHT22;64625;50.882;4.376;2023-05-10T07:52:37;14.10;99.90
37984;DHT22;64625;50.882;4.376;2023-05-10T07:55:03;14.10;99.90
37984;DHT22;64625;50.882;4.376;2023-05-10T07:57:30;14.10;99.90
37984;DHT22;64625;50.882;4.376;2023-05-10T07:59:56;14.10;99.90
37984;DHT22;64625;50.882;4.376;2023-05-10T08:02:22;14.10;99.90
37984;DHT22;64625;50.882;4.376;2023-05-10T08:04:47;14.10;99.90
37984;DHT22;64625;50.882;4.376;2023-05-10T08:07:13;14.10;99.90
37984;DHT22;64625;50.882;4.376;2023-05-10T08:09:39;14.10;99.90
37984;DHT22;64625;50.882;4.376;2023-05-10T08:12:05;14.10;99.90
37984;DHT22;64625;50.882;4.376;2023-05-10T08:14:31;14.10;99.90
37984;DHT22;64625;50.882;4.376;2023-05-10T08:16:57;14.10;99.90
37984;DHT22;64625;50.882;4.376;2023-05-10T08:19:23;14.10;99.90
37984;DHT22;64625;50.882;4.376;2023-05-10T08:21:49;14.10;99.90
37984;DHT22;64625;50.882;4.376;2023-05-10T08:24:15;14.20;99.90
37984;DHT22;64625;50.882;4.376;2023-05-10T08:26:41;14.20;99.90
37984;DHT22;64625;50.882;4.376;2023-05-10T08:29:07;14.20;99.90
37984;DHT22;64625;50.882;4.376;2023-05-10T08:31:32;14.20;99.90
37984;DHT22;64625;50.882;4.376;2023-05-10T08:34:00;14.20;99.90
37984;DHT22;64625;50.882;4.376;2023-05-10T08:36:26;14.20;99.90
37984;DHT22;64625;50.882;4.376;2023-05-10T08:38:53;14.20;99.90
37984;DHT22;64625;50.882;4.376;2023-05-10T08:41:20;14.30;99.90
37984;DHT22;64625;50.882;4.376;2023-05-10T08:43:47;14.40;99.90
37984;DHT22;64625;50.882;4.376;2023-05-10T08:46:18;14.40;99.90
37984;DHT22;64625;50.882;4.376;2023-05-10T08:48:45;14.50;99.90
37984;DHT22;64625;50.882;4.376;2023-05-10T08:51:18;14.50;99.90
37984;DHT22;64625;50.882;4.376;2023-05-10T08:53:45;14.40;99.90
37984;DHT22;64625;50.882;4.376;2023-05-10T08:56:11;14.50;99.90
37984;DHT22;64625;50.882;4.376;2023-05-10T08:58:38;14.50;99.90
37984;DHT22;64625;50.882;4.376;2023-05-10T09:01:05;14.50;99.90
37984;DHT22;64625;50.882;4.376;2023-05-10T09:03:31;14.50;99.90
37984;DHT22;64625;50.882;4.376;2023-05-10T09:05:58;14.50;99.90
37984;DHT22;64625;50.882;4.376;2023-05-10T09:08:25;14.50;99.90
37984;DHT22;64625;50.882;4.376;2023-05-10T09:10:52;14.50;99.90
37984;DHT22;64625;50.882;4.376;2023-05-10T09:13:19;14.50;99.90
37984;DHT22;64625;50.882;4.376;2023-05-10T09:15:47;14.50;99.90
37984;DHT22;64625;50.882;4.376;2023-05-10T09:18:13;14.50;99.90
37984;DHT22;64625;50.882;4.376;2023-05-10T09:20:40;14.60;99.90
37984;DHT22;64625;50.882;4.376;2023-05-10T09:23:06;14.60;99.90
37984;DHT22;64625;50.882;4.376;2023-05-10T09:25:32;14.60;99.90
37984;DHT22;64625;50.882;4.376;2023-05-10T09:28:06;14.60;99.90
37984;DHT22;64625;50.882;4.376;2023-05-10T09:30:33;14.60;99.90
37984;DHT22;64625;50.882;4.376;2023-05-10T09:33:00;14.70;99.90
37984;DHT22;64625;50.882;4.376;2023-05-10T09:35:28;14.60;99.90
37984;DHT22;64625;50.882;4.376;2023-05-10T09:38:00;14.60;99.90
37984;DHT22;64625;50.882;4.376;2023-05-10T09:40:29;14.60;99.90
37984;DHT22;64625;50.882;4.376;2023-05-10T09:45:27;14.60;99.90
37984;DHT22;64625;50.882;4.376;2023-05-10T09:47:54;14.60;99.90
37984;DHT22;64625;50.882;4.376;2023-05-10T09:50:21;14.50;99.90
37984;DHT22;64625;50.882;4.376;2023-05-10T09:55:23;14.50;99.90
37984;DHT22;64625;50.882;4.376;2023-05-10T09:57:49;14.50;99.90
37984;DHT22;64625;50.882;4.376;2023-05-10T10:00:23;14.60;99.90
37984;DHT22;64625;50.882;4.376;2023-05-10T10:02:57;14.60;99.90
37984;DHT22;64625;50.882;4.376;2023-05-10T10:05:52;14.50;99.90
37984;DHT22;64625;50.882;4.376;2023-05-10T10:08:21;14.60;99.90
37984;DHT22;64625;50.882;4.376;2023-05-10T10:10:47;14.50;99.90
37984;DHT22;64625;50.882;4.376;2023-05-10T10:13:14;14.50;99.90
37984;DHT22;64625;50.882;4.376;2023-05-10T10:15:42;14.50;99.90
37984;DHT22;64625;50.882;4.376;2023-05-10T10:18:13;14.50;99.90
37984;DHT22;64625;50.882;4.376;2023-05-10T10:20:41;14.50;99.90
37984;DHT22;64625;50.882;4.376;2023-05-10T10:23:08;14.50;99.90
37984;DHT22;64625;50.882;4.376;2023-05-10T10:25:34;14.50;99.90
37984;DHT22;64625;50.882;4.376;2023-05-10T10:28:13;14.50;99.90
37984;DHT22;64625;50.882;4.376;2023-05-10T10:30:50;14.50;99.90
37984;DHT22;64625;50.882;4.376;2023-05-10T10:36:13;14.40;99.90
37984;DHT22;64625;50.882;4.376;2023-05-10T10:41:36;14.50;99.90
37984;DHT22;64625;50.882;4.376;2023-05-10T10:47:29;14.50;99.90
37984;DHT22;64625;50.882;4.376;2023-05-10T10:52:30;14.60;99.90
37984;DHT22;64625;50.882;4.376;2023-05-10T10:57:44;14.60;99.90
37984;DHT22;64625;50.882;4.376;2023-05-10T11:08:43;14.70;99.90
37984;DHT22;64625;50.882;4.376;2023-05-10T11:11:09;14.70;99.90
37984;DHT22;64625;50.882;4.376;2023-05-10T11:13:44;14.70;99.90
37984;DHT22;64625;50.882;4.376;2023-05-10T11:16:12;14.80;99.90
37984;DHT22;64625;50.882;4.376;2023-05-10T11:18:38;14.80;99.90
37984;DHT22;64625;50.882;4.376;2023-05-10T11:21:04;14.80;99.90
37984;DHT22;64625;50.882;4.376;2023-05-10T11:23:32;14.90;99.90
37984;DHT22;64625;50.882;4.376;2023-05-10T11:26:00;14.90;99.90
37984;DHT22;64625;50.882;4.376;2023-05-10T11:28:27;14.90;99.90
37984;DHT22;64625;50.882;4.376;2023-05-10T11:30:54;15.00;99.90
37984;DHT22;64625;50.882;4.376;2023-05-10T11:33:21;15.00;99.90
37984;DHT22;64625;50.882;4.376;2023-05-10T11:35:49;15.00;99.90
37984;DHT22;64625;50.882;4.376;2023-05-10T11:38:15;15.10;99.90
37984;DHT22;64625;50.882;4.376;2023-05-10T11:40:41;15.10;99.90
37984;DHT22;64625;50.882;4.376;2023-05-10T11:43:08;15.10;99.90
37984;DHT22;64625;50.882;4.376;2023-05-10T11:45:35;15.20;99.90
37984;DHT22;64625;50.882;4.376;2023-05-10T11:48:02;15.20;99.90
37984;DHT22;64625;50.882;4.376;2023-05-10T11:50:28;15.20;99.90
37984;DHT22;64625;50.882;4.376;2023-05-10T11:52:57;15.20;99.90
37984;DHT22;64625;50.882;4.376;2023-05-10T11:55:24;15.30;99.90
37984;DHT22;64625;50.882;4.376;2023-05-10T11:58:00;15.30;99.90
37984;DHT22;64625;50.882;4.376;2023-05-10T12:00:27;15.30;99.90
37984;DHT22;64625;50.882;4.376;2023-05-10T12:02:53;15.40;99.90
37984;DHT22;64625;50.882;4.376;2023-05-10T12:05:19;15.40;99.90
37984;DHT22;64625;50.882;4.376;2023-05-10T12:07:45;15.40;99.90
37984;DHT22;64625;50.882;4.376;2023-05-10T12:10:12;15.50;99.90
37984;DHT22;64625;50.882;4.376;2023-05-10T12:12:46;15.50;99.90
37984;DHT22;64625;50.882;4.376;2023-05-10T12:15:21;15.60;99.90
37984;DHT22;64625;50.882;4.376;2023-05-10T12:17:48;15.60;99.90
37984;DHT22;64625;50.882;4.376;2023-05-10T12:20:22;15.70;99.90
37984;DHT22;64625;50.882;4.376;2023-05-10T12:22:58;15.70;99.90
37984;DHT22;64625;50.882;4.376;2023-05-10T12:25:32;15.80;99.90
37984;DHT22;64625;50.882;4.376;2023-05-10T12:27:59;15.80;99.90
37984;DHT22;64625;50.882;4.376;2023-05-10T12:30:31;15.90;99.90
37984;DHT22;64625;50.882;4.376;2023-05-10T12:33:11;15.90;99.90
37984;DHT22;64625;50.882;4.376;2023-05-10T12:35:51;15.90;99.90
37984;DHT22;64625;50.882;4.376;2023-05-10T12:38:29;16.00;99.90
37984;DHT22;64625;50.882;4.376;2023-05-10T12:41:01;16.00;99.90
37984;DHT22;64625;50.882;4.376;2023-05-10T12:43:28;16.00;99.90
37984;DHT22;64625;50.882;4.376;2023-05-10T12:45:55;16.10;99.90
37984;DHT22;64625;50.882;4.376;2023-05-10T12:48:21;16.10;99.90
37984;DHT22;64625;50.882;4.376;2023-05-10T12:50:47;16.20;99.90
37984;DHT22;64625;50.882;4.376;2023-05-10T12:53:14;16.30;99.90
37984;DHT22;64625;50.882;4.376;2023-05-10T12:55:44;16.30;99.90
37984;DHT22;64625;50.882;4.376;2023-05-10T12:58:13;16.40;99.90
37984;DHT22;64625;50.882;4.376;2023-05-10T13:00:39;16.50;99.90
37984;DHT22;64625;50.882;4.376;2023-05-10T13:03:05;16.60;99.90
37984;DHT22;64625;50.882;4.376;2023-05-10T13:05:32;16.60;99.90
37984;DHT22;64625;50.882;4.376;2023-05-10T13:07:58;16.70;99.90
37984;DHT22;64625;50.882;4.376;2023-05-10T13:10:24;16.80;99.90
37984;DHT22;64625;50.882;4.376;2023-05-10T13:12:50;16.90;99.90
37984;DHT22;64625;50.882;4.376;2023-05-10T13:15:16;17.00;99.90
37984;DHT22;64625;50.882;4.376;2023-05-10T13:17:43;17.20;99.90
37984;DHT22;64625;50.882;4.376;2023-05-10T13:20:09;17.30;99.90
37984;DHT22;64625;50.882;4.376;2023-05-10T13:22:35;17.40;99.90
37984;DHT22;64625;50.882;4.376;2023-05-10T13:25:02;17.50;99.90
37984;DHT22;64625;50.882;4.376;2023-05-10T13:27:28;17.70;99.90
37984;DHT22;64625;50.882;4.376;2023-05-10T13:29:54;17.80;99.90
37984;DHT22;64625;50.882;4.376;2023-05-10T13:32:20;17.90;99.90
37984;DHT22;64625;50.882;4.376;2023-05-10T13:34:46;18.10;99.90
37984;DHT22;64625;50.882;4.376;2023-05-10T13:37:12;18.20;99.90
37984;DHT22;64625;50.882;4.376;2023-05-10T13:39:38;18.30;99.90
37984;DHT22;64625;50.882;4.376;2023-05-10T13:42:05;18.40;99.90
37984;DHT22;64625;50.882;4.376;2023-05-10T13:44:31;18.50;99.90
37984;DHT22;64625;50.882;4.376;2023-05-10T13:46:58;18.60;99.90
37984;DHT22;64625;50.882;4.376;2023-05-10T13:49:25;18.60;99.90
37984;DHT22;64625;50.882;4.376;2023-05-10T13:51:50;18.70;99.90
37984;DHT22;64625;50.882;4.376;2023-05-10T13:54:18;18.80;99.90
37984;DHT22;64625;50.882;4.376;2023-05-10T13:56:45;18.90;99.90
37984;DHT22;64625;50.882;4.376;2023-05-10T13:59:13;18.90;99.90
37984;DHT22;64625;50.882;4.376;2023-05-10T14:01:40;18.90;99.90
37984;DHT22;64625;50.882;4.376;2023-05-10T14:04:06;19.00;99.90
37984;DHT22;64625;50.882;4.376;2023-05-10T14:06:36;19.00;99.90
37984;DHT22;64625;50.882;4.376;2023-05-10T14:09:03;19.00;99.90
37984;DHT22;64625;50.882;4.376;2023-05-10T14:11:29;19.00;99.90
37984;DHT22;64625;50.882;4.376;2023-05-10T14:13:55;19.10;99.90
37984;DHT22;64625;50.882;4.376;2023-05-10T14:16:21;19.10;99.90
37984;DHT22;64625;50.882;4.376;2023-05-10T14:18:47;19.20;99.90
37984;DHT22;64625;50.882;4.376;2023-05-10T14:21:13;19.20;99.90
37984;DHT22;64625;50.882;4.376;2023-05-10T14:23:39;19.30;99.90
37984;DHT22;64625;50.882;4.376;2023-05-10T14:26:05;19.30;99.90
37984;DHT22;64625;50.882;4.376;2023-05-10T14:28:32;19.30;99.90
37984;DHT22;64625;50.882;4.376;2023-05-10T14:30:58;19.30;99.90
37984;DHT22;64625;50.882;4.376;2023-05-10T14:33:24;19.30;99.90
37984;DHT22;64625;50.882;4.376;2023-05-10T14:35:50;19.30;99.90
37984;DHT22;64625;50.882;4.376;2023-05-10T14:38:16;19.30;99.90
37984;DHT22;64625;50.882;4.376;2023-05-10T14:40:42;19.20;99.90
37984;DHT22;64625;50.882;4.376;2023-05-10T14:43:08;19.20;99.90
37984;DHT22;64625;50.882;4.376;2023-05-10T14:45:34;19.10;99.90
37984;DHT22;64625;50.882;4.376;2023-05-10T14:48:00;19.00;99.90
37984;DHT22;64625;50.882;4.376;2023-05-10T14:50:30;19.00;99.90
37984;DHT22;64625;50.882;4.376;2023-05-10T14:52:57;18.90;99.90
37984;DHT22;64625;50.882;4.376;2023-05-10T14:55:23;18.90;99.90
37984;DHT22;64625;50.882;4.376;2023-05-10T14:57:49;18.80;99.90
37984;DHT22;64625;50.882;4.376;2023-05-10T15:00:16;18.80;99.90
37984;DHT22;64625;50.882;4.376;2023-05-10T15:02:44;18.70;99.90
37984;DHT22;64625;50.882;4.376;2023-05-10T15:05:10;18.70;99.90
37984;DHT22;64625;50.882;4.376;2023-05-10T15:07:36;18.70;99.90
37984;DHT22;64625;50.882;4.376;2023-05-10T15:10:02;18.60;99.90
37984;DHT22;64625;50.882;4.376;2023-05-10T15:12:28;18.50;99.90
37984;DHT22;64625;50.882;4.376;2023-05-10T15:14:54;18.40;99.90
37984;DHT22;64625;50.882;4.376;2023-05-10T15:17:20;18.40;99.90
37984;DHT22;64625;50.882;4.376;2023-05-10T15:19:45;18.30;99.90
37984;DHT22;64625;50.882;4.376;2023-05-10T15:22:11;18.20;99.90
37984;DHT22;64625;50.882;4.376;2023-05-10T15:24:37;18.10;99.90
37984;DHT22;64625;50.882;4.376;2023-05-10T15:27:03;18.10;99.90
37984;DHT22;64625;50.882;4.376;2023-05-10T15:29:29;18.00;99.90
37984;DHT22;64625;50.882;4.376;2023-05-10T15:31:55;17.90;99.90
37984;DHT22;64625;50.882;4.376;2023-05-10T15:34:21;17.80;99.90
37984;DHT22;64625;50.882;4.376;2023-05-10T15:36:47;17.70;99.90
37984;DHT22;64625;50.882;4.376;2023-05-10T15:39:13;17.60;99.90
37984;DHT22;64625;50.882;4.376;2023-05-10T15:41:39;17.50;99.90
37984;DHT22;64625;50.882;4.376;2023-05-10T15:44:05;17.50;99.90
37984;DHT22;64625;50.882;4.376;2023-05-10T15:46:31;17.40;99.90
37984;DHT22;64625;50.882;4.376;2023-05-10T15:48:57;17.40;99.90
37984;DHT22;64625;50.882;4.376;2023-05-10T15:51:24;17.40;99.90
37984;DHT22;64625;50.882;4.376;2023-05-10T15:53:51;17.30;99.90
37984;DHT22;64625;50.882;4.376;2023-05-10T15:56:17;17.30;99.90
37984;DHT22;64625;50.882;4.376;2023-05-10T15:58:43;17.30;99.90
37984;DHT22;64625;50.882;4.376;2023-05-10T16:01:09;17.20;99.90
37984;DHT22;64625;50.882;4.376;2023-05-10T16:03:37;17.20;99.90
37984;DHT22;64625;50.882;4.376;2023-05-10T16:06:03;17.30;99.90
37984;DHT22;64625;50.882;4.376;2023-05-10T16:08:29;17.30;99.90
37984;DHT22;64625;50.882;4.376;2023-05-10T16:10:55;17.30;99.90